DW9615 Home Hill AU current weather conditions

sailwx.info

Wind from 283 at 2 knots gusting 8

Air temperature 33.9° C
Dewpoint 13.3° C

Last reported at 2016-Sep-27 03:50 UTC.
Time now 2016-Sep-27 05:23 UTC

Location: S 19°40' E 147°25'.
View on Google Maps.

See reports from other nearby stations

  
Tides and Currents Weather Stations Pressure Air Temp Water Temp Dewpoint Dewpoint Depression Visibility Wind Speed Wind Dir Waves Ship Positions
date/time (UTC)wind fromknots sea level pressurealtimeterstation pressurevisibilityair tempwater tempwave heightnotes
2016-Sep-27 04:50 045 2 gusting 9 33.9
2016-Sep-27 04:35 306 33.9
2016-Sep-27 04:20 170 3 gusting 7 33.9
2016-Sep-27 04:05 107 0 gusting 3 33.9
2016-Sep-27 03:50 283 2 gusting 8 33.9
2016-Sep-27 03:34 125 1 gusting 6 33.3
2016-Sep-27 03:20 269 1 gusting 6 32.8
2016-Sep-27 03:04 265 0 gusting 6 32.8
2016-Sep-27 02:49 306 0 gusting 5 32.2
2016-Sep-27 02:34 287 0 gusting 6 32.2
2016-Sep-27 02:19 156 1 gusting 7 31.7
2016-Sep-27 02:04 300 3 gusting 6 31.1
2016-Sep-27 01:49 156 2 gusting 7 31.1
2016-Sep-27 01:34 092 0 gusting 6 31.1
2016-Sep-27 01:19 307 0 gusting 6 30.6
2016-Sep-27 01:04 265 1 gusting 6 30.6
2016-Sep-27 00:49 325 0 gusting 5 29.4
2016-Sep-27 00:34 339 1 gusting 4 28.9
2016-Sep-27 00:19 179 0 gusting 5 28.9
2016-Sep-27 00:04 302 2 gusting 6 28.3
2016-Sep-26 23:49 225 0 gusting 3 27.8
2016-Sep-26 23:34 148 0 gusting 5 27.2
2016-Sep-26 23:19 103 0 gusting 3 26.1
2016-Sep-26 23:04 286 1 gusting 6 26.1
2016-Sep-26 22:49 165 3 gusting 5 25.6
2016-Sep-26 22:33 175 1 gusting 3 25.6
2016-Sep-26 22:18 165 0 gusting 3 25.0
2016-Sep-26 22:04 156 24.4
2016-Sep-26 21:48 152 23.9
2016-Sep-26 21:33 152 2 gusting 4 22.8
2016-Sep-26 21:18 150 22.2
2016-Sep-26 21:03 081 0 gusting 2 21.7
2016-Sep-26 20:48 080 21.1
2016-Sep-26 20:33 080 20.6
2016-Sep-26 20:18 080 20.6
2016-Sep-26 20:03 080 20.6
2016-Sep-26 19:48 079 20.6
2016-Sep-26 19:33 079 20.6
2016-Sep-26 19:18 067 20.6
2016-Sep-26 19:03 067 20.6
2016-Sep-26 18:48 067 20.6
2016-Sep-26 18:33 067 20.6
2016-Sep-26 18:18 067 20.6
2016-Sep-26 18:03 067 20.6
2016-Sep-26 17:48 067 20.6
2016-Sep-26 17:33 067 20.6
2016-Sep-26 17:18 067 20.6
2016-Sep-26 17:03 067 21.1
2016-Sep-26 16:48 066 0 gusting 3 21.1
2016-Sep-26 16:33 069 1 gusting 3 21.1
2016-Sep-26 16:18 064 1 gusting 3 21.1
2016-Sep-26 16:03 040 21.1
2016-Sep-26 15:48 040 21.1
2016-Sep-26 15:33 040 21.1
2016-Sep-26 15:18 040 0 gusting 1 21.1
2016-Sep-26 15:03 040 20.6
2016-Sep-26 14:48 040 21.1
2016-Sep-26 14:32 040 21.7
2016-Sep-26 14:17 040 21.7
2016-Sep-26 14:02 040 21.7
2016-Sep-26 13:47 040 22.2
2016-Sep-26 13:32 040 22.2
2016-Sep-26 13:17 040 22.2
2016-Sep-26 13:02 040 22.2
2016-Sep-26 12:47 040 22.8
2016-Sep-26 12:33 040 22.8
2016-Sep-26 12:24 040 22.8
2016-Sep-26 12:14 040 0 gusting 2 23.3
2016-Sep-26 11:53 040 0 gusting 3 23.3
2016-Sep-26 11:32 042 1 gusting 5 23.3
2016-Sep-26 11:17 075 3 gusting 6 23.3
2016-Sep-26 11:02 086 3 gusting 6 23.3
2016-Sep-26 10:47 061 3 gusting 7 23.3
2016-Sep-26 10:32 042 3 gusting 6 23.9
2016-Sep-26 10:17 053 5 gusting 8 23.9
2016-Sep-26 10:02 074 4 gusting 7 23.9
2016-Sep-26 09:47 061 3 gusting 7 23.9
2016-Sep-26 09:32 055 4 gusting 9 24.4
2016-Sep-26 09:17 063 2 gusting 6 24.4
2016-Sep-26 09:02 042 4 gusting 8 24.4
2016-Sep-26 08:47 066 5 gusting 10 25.0
2016-Sep-26 08:32 085 4 gusting 9 25.6
2016-Sep-26 08:17 102 5 gusting 11 25.6
2016-Sep-26 08:02 057 3 gusting 10 26.1
2016-Sep-26 07:47 083 4 gusting 9 26.1
2016-Sep-26 07:32 050 5 gusting 10 26.7
2016-Sep-26 07:17 035 5 gusting 12 27.8
2016-Sep-26 07:02 049 3 gusting 10 28.3
2016-Sep-26 06:47 072 6 gusting 12 28.3
2016-Sep-26 06:32 031 6 gusting 14 28.9
2016-Sep-26 06:17 052 4 gusting 13 30.0
2016-Sep-26 06:02 073 6 gusting 11 30.6
2016-Sep-26 05:47 044 4 gusting 10 31.1
2016-Sep-26 05:32 049 5 gusting 13 31.7
2016-Sep-26 05:17 017 6 gusting 14 31.7
2016-Sep-26 05:02 027 2 gusting 13 32.2
2016-Sep-26 04:47 025 3 gusting 12 32.2
2016-Sep-26 04:32 020 3 gusting 12 32.8
2016-Sep-26 04:17 356 1 gusting 12 33.3
2016-Sep-26 04:02 042 3 gusting 13 33.9
2016-Sep-26 03:47 071 1 gusting 6 35.0
2016-Sep-26 03:32 268 1 gusting 16 35.0
2016-Sep-26 03:17 282 1 gusting 4 35.0
2016-Sep-26 03:02 286 1 gusting 7 35.0
2016-Sep-26 02:47 165 2 gusting 7 34.4
2016-Sep-26 02:32 229 0 gusting 18 33.9
2016-Sep-26 02:16 279 0 gusting 5 33.3
2016-Sep-26 02:01 057 0 gusting 6 32.8
2016-Sep-26 01:46 258 1 gusting 6 32.8
2016-Sep-26 01:31 294 2 gusting 6 32.8
2016-Sep-26 01:16 165 2 gusting 7 32.2
2016-Sep-26 01:01 153 2 gusting 5 31.7
2016-Sep-26 00:46 287 1 gusting 6 31.1
2016-Sep-26 00:31 156 0 gusting 6 30.6
2016-Sep-26 00:16 154 1 gusting 7 30.6
2016-Sep-26 00:01 160 3 gusting 8 30.0
2016-Sep-25 23:46 165 2 gusting 6 29.4
2016-Sep-25 23:31 141 1 gusting 5 28.9
2016-Sep-25 23:16 175 2 gusting 8 27.8
2016-Sep-25 23:01 141 0 gusting 5 27.8
2016-Sep-25 22:46 154 4 gusting 9 26.7
2016-Sep-25 22:31 165 26.1
2016-Sep-25 22:16 205 0 gusting 2 25.0
2016-Sep-25 22:01 217 0 gusting 3 23.9
2016-Sep-25 21:45 223 22.8
2016-Sep-25 21:30 337 0 gusting 2 22.2
2016-Sep-25 21:15 338 21.7
2016-Sep-25 21:01 338 21.7
2016-Sep-25 20:45 338 20.6
2016-Sep-25 20:30 338 20.6
2016-Sep-25 20:16 338 19.4
2016-Sep-25 20:00 338 20.0
2016-Sep-25 19:45 338 20.0
2016-Sep-25 19:30 339 20.0
2016-Sep-25 19:15 339 20.0
2016-Sep-25 19:00 339 20.0
2016-Sep-25 18:45 339 20.0
2016-Sep-25 18:30 339 20.0
2016-Sep-25 18:15 340 20.6
2016-Sep-25 18:00 340 20.6
2016-Sep-25 17:45 340 20.6
2016-Sep-25 17:30 340 20.6
2016-Sep-25 17:15 340 20.6
2016-Sep-25 17:00 340 20.6
2016-Sep-25 16:45 341 20.6
2016-Sep-25 16:30 341 21.1
2016-Sep-25 16:15 341 21.7
2016-Sep-25 16:00 341 21.7
2016-Sep-25 15:45 341 21.7
2016-Sep-25 15:30 341 21.7
2016-Sep-25 15:15 341 21.7
2016-Sep-25 15:00 341 21.7
2016-Sep-25 14:45 341 21.7
2016-Sep-25 14:30 341 21.7
2016-Sep-25 14:15 341 21.7
2016-Sep-25 14:00 341 21.7
2016-Sep-25 13:44 341 22.2
2016-Sep-25 13:29 341 22.2
2016-Sep-25 13:14 341 22.2
2016-Sep-25 12:59 341 22.2
2016-Sep-25 12:45 341 0 gusting 2 22.2
2016-Sep-25 12:30 339 22.2
2016-Sep-25 12:14 339 0 gusting 2 22.2
2016-Sep-25 11:59 339 22.8
2016-Sep-25 11:44 339 23.3
2016-Sep-25 11:29 339 23.9
2016-Sep-25 11:14 339 24.4
2016-Sep-25 10:59 339 24.4
2016-Sep-25 10:44 339 24.4
2016-Sep-25 10:29 339 24.4
2016-Sep-25 10:14 341 0 gusting 2 24.4
2016-Sep-25 09:59 339 0 gusting 4 24.4
2016-Sep-25 09:44 341 24.4
2016-Sep-25 09:29 341 1 gusting 4 25.0
2016-Sep-25 09:14 340 25.0
2016-Sep-25 08:59 343 25.0
2016-Sep-25 08:44 344 25.6
2016-Sep-25 08:29 356 0 gusting 6 25.6
2016-Sep-25 08:14 330 2 gusting 8 25.6
2016-Sep-25 08:00 341 4 gusting 8 26.1
2016-Sep-25 07:44 341 3 gusting 8 26.7
2016-Sep-25 07:29 342 3 gusting 10 27.2
2016-Sep-25 07:14 342 4 gusting 9 27.2
2016-Sep-25 06:59 314 1 gusting 7 27.8
2016-Sep-25 06:44 341 6 gusting 11 27.8
2016-Sep-25 06:29 356 2 gusting 8 28.3
2016-Sep-25 06:14 329 6 gusting 11 28.3
2016-Sep-25 05:59 009 3 gusting 12 28.9
2016-Sep-25 05:44 345 6 gusting 14 28.9
2016-Sep-25 05:29 352 3 gusting 7 28.9
2016-Sep-25 05:14 011 1 gusting 9 28.9